createdAt,value
2018-06-14T00:00:19.955Z,88.98
2018-06-14T00:02:49.147Z,88.96
2018-06-14T00:05:18.579Z,87.61
2018-06-14T00:07:47.750Z,88.20
2018-06-14T00:10:17.443Z,87.88
2018-06-14T00:12:46.644Z,89.01
2018-06-14T00:15:15.807Z,88.75
2018-06-14T00:17:45.011Z,88.15
2018-06-14T00:20:14.605Z,88.97
2018-06-14T00:22:43.990Z,88.54
2018-06-14T00:25:13.650Z,88.65
2018-06-14T00:27:42.801Z,88.76
2018-06-14T00:30:12.027Z,88.68
2018-06-14T00:32:41.548Z,88.77
2018-06-14T00:35:10.731Z,88.09
2018-06-14T00:37:40.033Z,88.07
2018-06-14T00:40:09.467Z,89.19
2018-06-14T00:42:38.575Z,89.90
2018-06-14T00:45:07.839Z,89.40
2018-06-14T00:47:37.014Z,88.65
2018-06-14T00:50:06.816Z,88.31
2018-06-14T00:52:36.030Z,87.70
2018-06-14T00:55:05.231Z,87.92
2018-06-14T00:57:34.386Z,88.69
2018-06-14T01:00:03.618Z,88.44
2018-06-14T01:02:34.115Z,88.43
2018-06-14T01:05:03.334Z,88.68
2018-06-14T01:07:32.618Z,87.39
2018-06-14T01:10:02.447Z,86.95
2018-06-14T01:12:31.599Z,88.11
2018-06-14T01:15:01.119Z,88.49
2018-06-14T01:17:30.283Z,88.01
2018-06-14T01:19:59.515Z,88.21
2018-06-14T01:22:28.694Z,88.54
2018-06-14T01:24:58.157Z,88.04
2018-06-14T01:27:27.299Z,88.68
2018-06-14T01:29:56.645Z,88.46
2018-06-14T01:32:25.787Z,88.11
2018-06-14T01:34:54.977Z,88.70
2018-06-14T01:37:35.317Z,88.95
2018-06-14T01:40:04.547Z,88.85
2018-06-14T01:42:33.718Z,89.58
2018-06-14T01:45:02.946Z,89.34
2018-06-14T01:47:32.999Z,88.94
2018-06-14T01:50:02.416Z,89.61
2018-06-14T01:52:31.678Z,88.77
2018-06-14T01:55:00.873Z,88.97
2018-06-14T01:57:30.025Z,89.13
2018-06-14T01:59:59.402Z,88.62
2018-06-14T02:02:29.026Z,89.20
2018-06-14T02:04:58.239Z,89.66
2018-06-14T02:07:27.403Z,89.74
2018-06-14T02:09:56.910Z,89.16
2018-06-14T02:12:26.190Z,89.23
2018-06-14T02:14:55.387Z,89.80
2018-06-14T02:17:24.835Z,90.12
2018-06-14T02:19:54.040Z,90.11
2018-06-14T02:22:23.666Z,89.04
2018-06-14T02:24:52.850Z,89.41
2018-06-14T02:27:22.035Z,89.82
2018-06-14T02:29:51.354Z,88.95
2018-06-14T02:32:20.762Z,90.13
2018-06-14T02:34:49.981Z,90.44
2018-06-14T02:37:19.150Z,90.25
2018-06-14T02:39:48.334Z,90.44
2018-06-14T02:42:18.243Z,89.30
2018-06-14T02:44:47.529Z,89.25
2018-06-14T02:47:16.636Z,90.00
2018-06-14T02:49:45.811Z,90.45
2018-06-14T02:52:15.003Z,90.10
2018-06-14T02:54:44.190Z,90.47
2018-06-14T02:57:13.387Z,90.76
2018-06-14T02:59:42.819Z,90.08
2018-06-14T03:02:12.061Z,90.09
2018-06-14T03:04:41.551Z,90.03
2018-06-14T03:07:10.755Z,89.91
2018-06-14T03:09:39.903Z,90.17
2018-06-14T03:12:09.406Z,90.19
2018-06-14T03:14:38.579Z,89.39
2018-06-14T03:17:07.799Z,89.23
2018-06-14T03:19:36.958Z,90.10
2018-06-14T03:22:06.170Z,89.86
2018-06-14T03:24:35.426Z,89.37
2018-06-14T03:27:04.627Z,89.13
2018-06-14T03:29:33.766Z,89.49
2018-06-14T03:32:03.838Z,89.62
2018-06-14T03:34:33.578Z,89.52
2018-06-14T03:37:03.122Z,89.76
2018-06-14T03:39:32.534Z,88.93
2018-06-14T03:42:06.959Z,88.82
2018-06-14T03:44:37.558Z,88.35
2018-06-14T03:47:07.879Z,89.25
2018-06-14T03:49:38.395Z,89.43
2018-06-14T03:52:08.356Z,88.39
2018-06-14T03:54:37.639Z,87.97
2018-06-14T03:57:07.829Z,88.67
2018-06-14T03:59:37.003Z,87.48
2018-06-14T04:02:06.587Z,87.08
2018-06-14T04:04:35.786Z,87.26
2018-06-14T04:07:04.995Z,87.16
2018-06-14T04:09:34.895Z,87.23
2018-06-14T04:12:04.251Z,87.23
2018-06-14T04:14:33.620Z,87.69
2018-06-14T04:17:03.461Z,87.83
2018-06-14T04:19:33.082Z,86.33
2018-06-14T04:22:02.286Z,87.00
2018-06-14T04:24:31.472Z,87.01
2018-06-14T04:27:00.678Z,86.27
2018-06-14T04:29:30.311Z,86.30
2018-06-14T04:32:00.172Z,86.15
2018-06-14T04:34:29.336Z,86.32
2018-06-14T04:36:58.786Z,85.08
2018-06-14T04:39:29.312Z,84.78
2018-06-14T04:41:58.823Z,84.25
2018-06-14T04:44:28.043Z,84.67
2018-06-14T04:46:57.255Z,84.07
2018-06-14T04:49:26.835Z,83.63
2018-06-14T04:51:56.039Z,83.94
2018-06-14T04:54:25.224Z,82.43
2018-06-14T04:56:54.411Z,82.71
2018-06-14T04:59:23.589Z,82.17
2018-06-14T05:01:53.002Z,81.21
2018-06-14T05:04:22.198Z,81.12
2018-06-14T05:06:51.393Z,81.24
2018-06-14T05:09:20.582Z,80.65
2018-06-14T05:11:49.772Z,80.38
2018-06-14T05:14:19.794Z,80.23
2018-06-14T05:16:49.021Z,80.60
2018-06-14T05:19:18.275Z,80.46
2018-06-14T05:21:47.466Z,79.53
2018-06-14T05:24:16.793Z,79.83
2018-06-14T05:26:46.215Z,80.11
2018-06-14T05:29:15.388Z,80.05
2018-06-14T05:31:45.309Z,80.00
2018-06-14T05:34:14.467Z,79.11
2018-06-14T05:36:43.695Z,78.54
2018-06-14T05:39:13.175Z,78.12
2018-06-14T05:41:42.386Z,77.67
2018-06-14T05:44:11.563Z,75.77
2018-06-14T05:46:40.804Z,74.27
2018-06-14T05:49:10.227Z,70.18
2018-06-14T05:51:39.463Z,69.60
2018-06-14T05:54:08.655Z,68.62
2018-06-14T05:56:37.855Z,65.57
2018-06-14T05:59:07.027Z,63.13
2018-06-14T06:01:36.404Z,62.57
2018-06-14T06:04:05.751Z,57.78
2018-06-14T06:06:34.987Z,54.76
2018-06-14T06:09:06.408Z,55.27
2018-06-14T06:11:35.619Z,51.44
2018-06-14T06:14:04.834Z,49.91
2018-06-14T06:16:34.351Z,52.10
2018-06-14T06:19:03.542Z,50.77
2018-06-14T06:21:32.751Z,51.49
2018-06-14T06:24:01.955Z,50.88
2018-06-14T06:26:31.187Z,49.88
2018-06-14T06:29:00.379Z,48.81
2018-06-14T06:31:29.891Z,48.80
2018-06-14T06:33:59.080Z,48.62
2018-06-14T06:36:28.438Z,45.68
2018-06-14T06:38:57.908Z,45.79
2018-06-14T06:41:27.067Z,43.67
2018-06-14T06:43:56.271Z,43.27
2018-06-14T06:46:25.467Z,43.05
2018-06-14T06:48:54.651Z,43.72
2018-06-14T06:51:23.874Z,43.14
2018-06-14T06:53:53.058Z,43.21
2018-06-14T06:56:22.870Z,44.11
2018-06-14T06:58:52.140Z,46.47
2018-06-14T07:01:21.302Z,45.11
2018-06-14T07:03:50.495Z,43.25
2018-06-14T07:06:19.680Z,45.68
2018-06-14T07:08:49.395Z,45.06
2018-06-14T07:11:18.586Z,44.94
2018-06-14T07:13:47.794Z,45.06
2018-06-14T07:16:17.382Z,40.59
2018-06-14T07:18:46.888Z,38.39
2018-06-14T07:21:16.066Z,39.67
2018-06-14T07:23:45.301Z,39.84
2018-06-14T07:26:14.484Z,37.50
2018-06-14T07:28:43.680Z,35.96
2018-06-14T07:31:12.891Z,35.39
2018-06-14T07:33:42.100Z,35.76
2018-06-14T07:36:11.424Z,32.07
2018-06-14T07:38:40.620Z,35.44
2018-06-14T07:41:10.715Z,38.30
2018-06-14T07:43:39.915Z,41.14
2018-06-14T07:46:09.106Z,44.25
2018-06-14T07:48:38.426Z,43.78
2018-06-14T07:51:07.651Z,42.35
2018-06-14T07:53:36.918Z,36.23
2018-06-14T07:56:06.275Z,35.91
2018-06-14T07:58:35.483Z,33.95
2018-06-14T08:01:04.664Z,33.13
2018-06-14T08:03:33.899Z,36.21
2018-06-14T08:06:03.299Z,36.01
2018-06-14T08:08:32.524Z,34.23
2018-06-14T08:11:01.715Z,32.09
2018-06-14T08:13:31.076Z,34.69
2018-06-14T08:16:00.769Z,38.36
2018-06-14T08:18:29.938Z,34.99
2018-06-14T08:20:59.151Z,33.59
2018-06-14T08:23:28.355Z,29.13
2018-06-14T08:25:57.521Z,30.74
2018-06-14T08:28:26.979Z,31.79
2018-06-14T08:30:56.186Z,34.27
2018-06-14T08:33:25.395Z,35.59
2018-06-14T08:35:54.822Z,32.78
2018-06-14T08:38:24.042Z,30.55
2018-06-14T08:40:53.236Z,32.18
2018-06-14T08:43:22.427Z,34.96
2018-06-14T08:45:51.612Z,38.66
2018-06-14T08:48:21.928Z,39.21
2018-06-14T08:50:51.095Z,38.42
2018-06-14T08:53:20.323Z,35.57
2018-06-14T08:55:49.500Z,30.76
2018-06-14T08:58:18.743Z,30.88
2018-06-14T09:00:48.946Z,26.29
2018-06-14T09:03:18.195Z,23.88
2018-06-14T09:05:47.350Z,24.67
2018-06-14T09:08:16.539Z,24.89
2018-06-14T09:10:45.759Z,30.51
2018-06-14T09:13:14.989Z,36.80
2018-06-14T09:15:44.300Z,39.73
2018-06-14T09:18:13.626Z,39.67
2018-06-14T09:20:42.915Z,36.12
2018-06-14T09:23:12.106Z,36.02
2018-06-14T09:25:41.448Z,37.25
2018-06-14T09:28:10.967Z,36.91
2018-06-14T09:30:40.152Z,38.18
2018-06-14T09:33:09.363Z,34.78
2018-06-14T09:35:38.792Z,31.91
2018-06-14T09:38:08.262Z,28.17
2018-06-14T09:40:37.471Z,29.09
2018-06-14T09:43:06.690Z,26.40
2018-06-14T09:45:36.110Z,30.54
2018-06-14T09:48:05.334Z,28.46
2018-06-14T09:50:34.507Z,30.78
2018-06-14T09:53:05.034Z,31.85
2018-06-14T09:55:34.443Z,33.81
2018-06-14T09:58:04.195Z,32.02
2018-06-14T10:00:33.525Z,29.28
2018-06-14T10:03:02.737Z,29.36
2018-06-14T10:05:32.429Z,29.52
2018-06-14T10:08:01.578Z,24.18
2018-06-14T10:10:30.770Z,25.60
2018-06-14T10:13:00.025Z,26.12
2018-06-14T10:15:29.223Z,29.70
2018-06-14T10:17:58.928Z,31.16
2018-06-14T10:20:28.130Z,29.79
2018-06-14T10:22:57.639Z,25.15
2018-06-14T10:25:26.841Z,25.43
2018-06-14T10:27:56.959Z,27.17
2018-06-14T10:30:26.523Z,26.61
2018-06-14T10:32:56.446Z,28.66
2018-06-14T10:35:26.179Z,28.72
2018-06-14T10:37:55.359Z,26.87
2018-06-14T10:40:24.613Z,27.48
2018-06-14T10:42:54.140Z,27.78
2018-06-14T10:45:23.383Z,26.58
2018-06-14T10:47:52.771Z,26.67
2018-06-14T10:50:22.013Z,29.48
2018-06-14T10:52:51.397Z,31.07
2018-06-14T10:55:20.894Z,27.45
2018-06-14T10:57:50.089Z,26.10
2018-06-14T11:00:19.637Z,26.46
2018-06-14T11:02:49.080Z,25.11
2018-06-14T11:05:18.496Z,23.37
2018-06-14T11:07:47.691Z,23.07
2018-06-14T11:10:16.896Z,28.35
2018-06-14T11:12:46.193Z,28.90
2018-06-14T11:15:15.954Z,25.87
2018-06-14T11:17:45.111Z,27.45
2018-06-14T11:20:14.694Z,25.17
2018-06-14T11:22:44.127Z,24.53
2018-06-14T11:25:13.332Z,23.89
2018-06-14T11:27:43.546Z,26.89
2018-06-14T11:30:12.748Z,24.57
2018-06-14T11:32:41.930Z,28.12
2018-06-14T11:35:11.144Z,28.13
2018-06-14T11:37:40.343Z,27.32
2018-06-14T11:40:10.079Z,27.47
2018-06-14T11:42:39.587Z,30.02
2018-06-14T11:45:08.832Z,32.48
2018-06-14T11:47:38.023Z,31.73
2018-06-14T11:50:07.272Z,31.99
2018-06-14T11:52:36.676Z,31.70
2018-06-14T11:55:06.147Z,32.00
2018-06-14T11:57:35.651Z,29.04
2018-06-14T12:00:04.923Z,28.99
2018-06-14T12:02:34.165Z,29.82
2018-06-14T12:05:03.723Z,28.96
2018-06-14T12:07:32.923Z,31.30
2018-06-14T12:10:02.153Z,32.39
2018-06-14T12:12:31.752Z,28.62
2018-06-14T12:15:02.050Z,26.99
2018-06-14T12:17:31.219Z,25.68
2018-06-14T12:20:00.446Z,25.59
2018-06-14T12:22:29.666Z,24.59
2018-06-14T12:24:59.207Z,22.25
2018-06-14T12:27:28.383Z,26.12
2018-06-14T12:29:58.231Z,29.09
2018-06-14T12:32:27.443Z,30.08
2018-06-14T12:34:56.772Z,27.61
2018-06-14T12:37:26.099Z,25.50
2018-06-14T12:39:55.330Z,30.61
2018-06-14T12:42:24.529Z,35.01
2018-06-14T12:44:54.435Z,33.55
2018-06-14T12:47:24.644Z,32.62
2018-06-14T12:49:54.138Z,30.09
2018-06-14T12:53:52.469Z,27.22
2018-06-14T12:56:21.701Z,27.48
2018-06-14T12:58:50.931Z,27.96
2018-06-14T13:01:20.316Z,29.30
2018-06-14T13:03:49.505Z,29.29
2018-06-14T13:06:18.736Z,32.71
2018-06-14T13:08:47.923Z,32.96
2018-06-14T13:11:17.415Z,33.55
2018-06-14T13:13:46.794Z,33.81
2018-06-14T13:16:16.013Z,33.55
2018-06-14T13:18:45.427Z,32.98
2018-06-14T13:21:14.777Z,31.39
2018-06-14T13:23:43.983Z,32.05
2018-06-14T13:26:14.235Z,29.83
2018-06-14T13:28:44.212Z,29.90
2018-06-14T13:31:13.840Z,29.85
2018-06-14T13:33:43.028Z,31.16
2018-06-14T13:36:12.523Z,31.17
2018-06-14T13:38:41.983Z,29.79
2018-06-14T13:41:11.207Z,29.16
2018-06-14T13:43:40.391Z,31.05
2018-06-14T13:46:10.167Z,31.46
2018-06-14T13:48:39.883Z,35.23
2018-06-14T13:51:09.622Z,34.80
2018-06-14T13:53:38.804Z,36.37
2018-06-14T13:56:08.351Z,33.24
2018-06-14T13:58:37.519Z,32.86
2018-06-14T14:01:07.065Z,34.79
2018-06-14T14:03:36.584Z,36.42
2018-06-14T14:06:06.208Z,37.18
2018-06-14T14:08:35.827Z,35.28
2018-06-14T14:11:05.039Z,36.68
2018-06-14T14:13:34.767Z,36.48
2018-06-14T14:16:03.998Z,37.95
2018-06-14T14:18:33.594Z,37.18
2018-06-14T14:21:02.819Z,35.76
2018-06-14T14:23:32.006Z,36.29
2018-06-14T14:26:01.220Z,36.44
2018-06-14T14:28:30.803Z,36.17
2018-06-14T14:31:00.051Z,38.73
2018-06-14T14:33:30.488Z,38.67
2018-06-14T14:36:00.016Z,36.16
2018-06-14T14:38:29.209Z,36.34
2018-06-14T14:40:59.139Z,38.90
2018-06-14T14:43:28.434Z,39.69
2018-06-14T14:45:57.927Z,40.66
2018-06-14T14:48:27.102Z,39.07
2018-06-14T14:50:56.782Z,38.76
2018-06-14T14:53:25.967Z,36.69
2018-06-14T14:55:55.927Z,38.61
2018-06-14T14:58:25.112Z,37.03
2018-06-14T15:00:54.323Z,36.83
2018-06-14T15:03:23.502Z,37.31
2018-06-14T15:05:52.694Z,39.28
2018-06-14T15:08:22.099Z,36.87
2018-06-14T15:10:51.586Z,39.12
2018-06-14T15:13:20.795Z,38.94
2018-06-14T15:15:49.986Z,41.61
2018-06-14T15:18:19.402Z,38.25
2018-06-14T15:20:48.618Z,38.92
2018-06-14T15:23:17.825Z,40.16
2018-06-14T15:25:47.395Z,37.58
2018-06-14T15:28:16.575Z,37.63
2018-06-14T15:30:45.773Z,36.30
2018-06-14T15:33:14.960Z,38.41
2018-06-14T15:35:44.527Z,39.17
2018-06-14T15:38:13.715Z,41.01
2018-06-14T15:40:42.895Z,41.88
2018-06-14T15:43:12.230Z,41.07
2018-06-14T15:45:41.610Z,41.82
2018-06-14T15:48:11.206Z,41.48
2018-06-14T15:50:42.148Z,41.90
2018-06-14T15:53:11.623Z,42.16
2018-06-14T15:55:58.491Z,42.21
2018-06-14T15:58:27.687Z,42.80
2018-06-14T16:00:57.327Z,42.93
2018-06-14T16:03:26.551Z,42.62
2018-06-14T16:05:55.723Z,43.59
2018-06-14T16:08:24.913Z,42.88
2018-06-14T16:10:54.285Z,43.59
2018-06-14T16:13:23.482Z,42.83
2018-06-14T16:15:52.664Z,43.93
2018-06-14T16:18:21.871Z,43.50
2018-06-14T16:20:51.095Z,43.86
2018-06-14T16:23:20.283Z,45.80
2018-06-14T16:25:49.465Z,45.14
2018-06-14T16:28:18.758Z,44.45
2018-06-14T16:30:47.930Z,43.84
2018-06-14T16:33:17.140Z,43.87
2018-06-14T16:35:46.314Z,44.33
2018-06-14T16:38:16.463Z,44.89
2018-06-14T16:40:45.658Z,45.88
2018-06-14T16:43:15.419Z,46.76
2018-06-14T16:45:44.626Z,46.99
2018-06-14T16:48:13.879Z,46.40
2018-06-14T16:50:43.066Z,47.48
2018-06-14T16:53:12.902Z,47.09
2018-06-14T16:55:42.089Z,47.52
2018-06-14T16:58:11.395Z,47.21
2018-06-14T17:00:40.727Z,48.52
2018-06-14T17:03:09.946Z,48.29
2018-06-14T17:05:39.143Z,47.86
2018-06-14T17:08:08.371Z,49.11
2018-06-14T17:10:38.019Z,48.42
2018-06-14T17:13:07.218Z,48.61
2018-06-14T17:15:36.642Z,49.11
2018-06-14T17:18:06.274Z,48.72
2018-06-14T17:20:35.666Z,49.25
2018-06-14T17:23:04.891Z,49.70
2018-06-14T17:25:34.038Z,49.73
2018-06-14T17:28:03.268Z,49.72
2018-06-14T17:30:32.456Z,50.39
2018-06-14T17:33:01.647Z,49.71
2018-06-14T17:35:30.981Z,50.59
2018-06-14T17:38:00.458Z,50.65
2018-06-14T17:40:29.695Z,51.37
2018-06-14T17:42:58.918Z,51.05
2018-06-14T17:45:28.120Z,52.22
2018-06-14T17:47:58.471Z,52.76
2018-06-14T17:50:27.650Z,53.44
2018-06-14T17:52:57.156Z,53.78
2018-06-14T17:55:26.455Z,52.67
2018-06-14T17:57:55.658Z,53.97
2018-06-14T18:00:24.844Z,53.86
2018-06-14T18:02:54.758Z,54.46
2018-06-14T18:05:23.984Z,56.63
2018-06-14T18:07:53.247Z,58.18
2018-06-14T18:10:23.775Z,61.04
2018-06-14T18:12:54.300Z,60.96
2018-06-14T18:15:23.908Z,61.93
2018-06-14T18:17:53.915Z,62.65
2018-06-14T18:20:23.030Z,64.16
2018-06-14T18:22:52.319Z,66.95
2018-06-14T18:25:21.515Z,69.97
2018-06-14T18:27:50.859Z,72.39
2018-06-14T18:30:20.048Z,71.04
2018-06-14T18:32:49.271Z,72.25
2018-06-14T18:35:18.437Z,73.11
2018-06-14T18:37:49.384Z,74.23
2018-06-14T18:40:18.987Z,73.18
2018-06-14T18:42:48.907Z,75.71
2018-06-14T18:45:18.105Z,78.43
2018-06-14T18:47:48.396Z,77.50
2018-06-14T18:50:18.352Z,76.26
2018-06-14T18:52:48.052Z,79.33
2018-06-14T18:55:18.105Z,79.17
2018-06-14T18:57:48.790Z,79.43
2018-06-14T19:00:19.064Z,78.87
2018-06-14T19:02:49.214Z,79.20
2018-06-14T19:05:18.602Z,81.68
2018-06-14T19:07:48.103Z,79.75
2018-06-14T19:10:17.311Z,80.86
2018-06-14T19:12:47.555Z,80.06
2018-06-14T19:15:17.138Z,83.14
2018-06-14T19:17:47.203Z,83.12
2018-06-14T19:20:17.468Z,82.90
2018-06-14T19:22:47.156Z,82.57
2018-06-14T19:25:17.253Z,84.24
2018-06-14T19:27:46.950Z,83.92
2018-06-14T19:30:16.623Z,81.27
2018-06-14T19:32:45.877Z,82.81
2018-06-14T19:35:15.212Z,81.85
2018-06-14T19:37:44.452Z,85.61
2018-06-14T19:40:14.471Z,83.78
2018-06-14T19:42:44.155Z,83.75
2018-06-14T19:45:13.391Z,84.69
2018-06-14T19:47:42.583Z,86.14
2018-06-14T19:50:12.951Z,83.94
2018-06-14T19:52:42.155Z,84.51
2018-06-14T19:55:11.351Z,83.34
2018-06-14T19:57:40.523Z,84.12
2018-06-14T20:00:09.795Z,85.66
2018-06-14T20:02:38.971Z,85.66
2018-06-14T20:05:08.159Z,83.66
2018-06-14T20:07:37.343Z,84.32
2018-06-14T20:10:06.655Z,84.15
2018-06-14T20:12:36.127Z,85.33
2018-06-14T20:15:06.038Z,84.79
2018-06-14T20:17:35.342Z,85.11
2018-06-14T20:20:04.931Z,85.38
2018-06-14T20:22:34.128Z,84.88
2018-06-14T20:25:03.348Z,83.71
2018-06-14T20:27:32.647Z,83.47
2018-06-14T20:30:02.151Z,84.84
2018-06-14T20:32:31.712Z,82.99
2018-06-14T20:35:01.824Z,83.79
2018-06-14T20:37:31.023Z,86.36
2018-06-14T20:40:00.261Z,85.32
2018-06-14T20:42:29.477Z,84.98
2018-06-14T20:44:58.668Z,86.17
2018-06-14T20:47:27.859Z,85.70
2018-06-14T20:49:57.076Z,84.62
2018-06-14T20:52:26.256Z,84.65
2018-06-14T20:54:55.721Z,83.37
2018-06-14T20:57:25.124Z,85.64
2018-06-14T20:59:54.335Z,84.70
2018-06-14T21:02:23.703Z,84.88
2018-06-14T21:04:52.923Z,85.48
2018-06-14T21:07:22.183Z,85.51
2018-06-14T21:09:51.726Z,84.41
2018-06-14T21:12:20.938Z,84.44
2018-06-14T21:14:50.219Z,85.72
2018-06-14T21:17:19.437Z,84.59
2018-06-14T21:19:48.643Z,84.82
2018-06-14T21:22:18.169Z,84.19
2018-06-14T21:24:48.298Z,85.04
2018-06-14T21:27:18.035Z,84.89
2018-06-14T21:29:47.264Z,85.43
2018-06-14T21:32:16.494Z,85.60
2018-06-14T21:34:45.684Z,84.94
2018-06-14T21:37:14.879Z,85.20
2018-06-14T21:39:44.239Z,85.13
2018-06-14T21:42:13.638Z,85.64
2018-06-14T21:44:42.864Z,84.47
2018-06-14T21:47:12.036Z,84.92
2018-06-14T21:49:41.290Z,85.56
2018-06-14T21:52:10.492Z,85.29
2018-06-14T21:54:39.994Z,85.00
2018-06-14T21:57:09.287Z,84.75
2018-06-14T21:59:38.774Z,85.28
2018-06-14T22:02:08.279Z,85.70
2018-06-14T22:04:37.486Z,85.42
2018-06-14T22:07:06.752Z,85.12
2018-06-14T22:09:36.035Z,85.03
2018-06-14T22:12:05.217Z,85.72
2018-06-14T22:14:34.440Z,85.45
2018-06-14T22:17:03.675Z,85.53
2018-06-14T22:19:32.894Z,84.74
2018-06-14T22:22:02.102Z,85.12
2018-06-14T22:24:31.330Z,85.28
2018-06-14T22:27:00.504Z,84.47
2018-06-14T22:29:29.735Z,85.53
2018-06-14T22:31:58.947Z,84.79
2018-06-14T22:34:39.395Z,85.11
2018-06-14T22:37:08.620Z,84.67
2018-06-14T22:39:38.034Z,84.44
2018-06-14T22:42:07.223Z,84.44
2018-06-14T22:44:36.476Z,85.22
2018-06-14T22:47:06.106Z,85.46
2018-06-14T22:49:35.563Z,85.21
2018-06-14T22:53:11.762Z,86.56
2018-06-14T22:55:40.981Z,86.04
2018-06-14T22:58:10.168Z,86.15
2018-06-14T23:01:46.799Z,84.96
2018-06-14T23:04:18.853Z,85.36
2018-06-14T23:06:48.318Z,84.69
2018-06-14T23:10:35.282Z,84.04
2018-06-14T23:13:04.987Z,83.16
2018-06-14T23:15:35.023Z,84.13
2018-06-14T23:18:04.246Z,83.93
2018-06-14T23:20:34.235Z,84.53
2018-06-14T23:23:04.209Z,84.12
2018-06-14T23:25:34.021Z,84.02
2018-06-14T23:28:03.387Z,83.85
2018-06-14T23:30:32.579Z,84.53
2018-06-14T23:33:01.794Z,84.37
2018-06-14T23:35:30.984Z,82.66
2018-06-14T23:38:00.195Z,82.69
2018-06-14T23:40:29.521Z,83.14
2018-06-14T23:42:58.731Z,82.22
2018-06-14T23:45:28.004Z,81.98
2018-06-14T23:47:57.164Z,81.72
2018-06-14T23:50:26.727Z,81.85
2018-06-14T23:52:55.920Z,81.04
2018-06-14T23:55:25.088Z,81.37
2018-06-14T23:57:54.302Z,81.65
